Akutan, Alaska
Current Conditions -  °F | °C
As of 12:35 PM on Friday 19 Dec 2014 (Local Time) from PAUT Reporting Station
Overcast Overcast  
Wind Chill:   Ceiling: 2500
Heat Index:   Visibility: 10mi
Dew Point:   Wind: 8mph
Humidity: 92%   Direction: 70°ENE
Pressure: 28.77"   Gusts: NA
Location:  54.14°N, 165.77°W
Report Text: PAUT 192135Z AUTO 07007KT 10SM BKN025 OVC030 03/02 A2877 RMK AO2 T00330021
Loading
Personal Weather Stations






























Interactive Weather Map New forecast layout! Learn more

10-Day Weather Forecast

Advertisements
Track Severe Weather on mobile